This is the latest recevied weather packets stored in our database for station/object W0SS-13. If no packets are shown the sender has not sent any weather packets the latest 10 day(s).
| Time | Temp. | Humidity | Pressure | Rain* | Wind** | Luminosity | Snow |
|---|---|---|---|---|---|---|---|
| 1777692021 | 11.67° C | 54% | 1020 hPa | 0 mm | - | 0 W/m² | - |
| 1777691718 | 11.67° C | 54% | 1019.9 hPa | 0 mm | - | 0 W/m² | - |
| 1777691416 | 11.67° C | 53% | 1019.6 hPa | 0 mm | - | 0 W/m² | - |
| 1777691115 | 12.22° C | 53% | 1019.7 hPa | 0 mm | - | 0 W/m² | - |
| 1777690812 | 12.22° C | 53% | 1019.7 hPa | 0 mm | - | 0 W/m² | - |
| 1777690509 | 12.22° C | 54% | 1019.5 hPa | 0 mm | - | 0 W/m² | - |
| 1777690207 | 12.22° C | 52% | 1019.5 hPa | 0 mm | - | 0 W/m² | - |
| 1777689904 | 12.22° C | 52% | 1019.2 hPa | 0 mm | - | 0 W/m² | - |
| 1777689603 | 12.22° C | 52% | 1019.3 hPa | 0 mm | - | 0 W/m² | - |
| 1777689300 | 12.78° C | 52% | 1019.2 hPa | 0 mm | - | 0 W/m² | - |
| 1777688997 | 12.78° C | 51% | 1019.3 hPa | 0 mm | - | 0 W/m² | - |
| 1777688694 | 12.78° C | 52% | 1019 hPa | 0 mm | - | 0 W/m² | - |
| 1777674149 | 17.78° C | 35% | 1017.3 hPa | 0 mm | - | 363 W/m² | - |
| 1777673846 | 17.78° C | 37% | 1017.2 hPa | 0 mm | - | 376 W/m² | - |
| 1777673543 | 17.78° C | 38% | 1017.1 hPa | 0 mm | - | 394 W/m² | - |
| 1777673240 | 17.22° C | 38% | 1017.2 hPa | 0 mm | - | 417 W/m² | - |
| 1777672938 | 17.22° C | 35% | 1017.6 hPa | 0 mm | - | 187 W/m² | - |
| 1777672635 | 17.22° C | 39% | 1017.4 hPa | 0 mm | - | 470 W/m² | - |
| 1777672330 | 17.22° C | 39% | 1017.4 hPa | 0 mm | - | 380 W/m² | - |
| 1777671722 | 17.78° C | 37% | 1017.6 hPa | 0 mm | - | 506 W/m² | - |
| 1777671418 | 17.22° C | 38% | 1017.6 hPa | 0 mm | - | 490 W/m² | - |
| 1777671114 | 17.22° C | 40% | 1017.5 hPa | 0 mm | - | 213 W/m² | - |
| 1777670811 | 17.22° C | 37% | 1017.6 hPa | 0 mm | - | 170 W/m² | - |
| 1777670508 | 17.22° C | 40% | 1017.7 hPa | 0 mm | - | 297 W/m² | - |
| 1777670204 | 17.78° C | 36% | 1017.7 hPa | 0 mm | - | 270 W/m² | - |
* Rain latest hour (hover to see other rain measurements)
** Current wind speed in m/s (hover to see current wind gust speed)